CheckWX is a tool to help pilots better visualize weather data.  It is not intended as a substitute for an official pre-flight weather briefing.

18:58:00 UTC

ENQR METAR
Snorre B Oilp
Snorre B Oilp, Norway
Current

38 mins ago

ENQR 271820Z AUTO 17028KT 9999NDV SCT026/// BKN140/// 06/02 Q0983 W///S5
Observed
Jan-27 @ 18:20 UTC
Wind
  • 170° at 28 KTS
Visibility
Cloud Levels
  • Scattered at 2,600' AGL
  • Broken at 14,000' AGL
Temperature
C / 43°F
Dewpoint
C / 36°F
Humidity
76%
Altimeter
29.03" Hg
Pressure
982.92 hPa
Previous

1 hour ago

ENQR 271750Z AUTO 17031KT 9999NDV FEW017/// SCT100/// 06/01 Q0983 W///S5
Observed
Jan-27 @ 17:50 UTC
Wind
  • 170° at 31 KTS
Visibility
Cloud Levels
  • Few at 1,700' AGL
  • Scattered at 10,000' AGL
Temperature
C / 43°F
Dewpoint
C / 34°F
Humidity
71%
Altimeter
29.03" Hg
Pressure
982.92 hPa
Previous

2 hours ago

ENQR 271720Z AUTO 16024KT 9999NDV FEW017/// SCT069/// BKN094/// 05/02 Q0984 W///S5
Observed
Jan-27 @ 17:20 UTC
Wind
  • 160° at 24 KTS
Visibility
Cloud Levels
  • Few at 1,700' AGL
  • Scattered at 6,900' AGL
  • Broken at 9,400' AGL
Temperature
C / 41°F
Dewpoint
C / 36°F
Humidity
81%
Altimeter
29.06" Hg
Pressure
983.92 hPa